createdAt,value
2022-07-29T00:00:46.973Z,0.00
2022-07-29T00:01:47.023Z,0.00
2022-07-29T00:02:47.165Z,0.00
2022-07-29T00:03:47.249Z,0.00
2022-07-29T00:04:47.262Z,0.00
2022-07-29T00:05:47.306Z,0.00
2022-07-29T00:06:47.383Z,0.00
2022-07-29T00:07:47.472Z,0.00
2022-07-29T00:08:47.550Z,0.00
2022-07-29T00:09:51.610Z,0.00
2022-07-29T00:10:47.707Z,0.00
2022-07-29T00:11:47.779Z,0.00
2022-07-29T00:12:47.858Z,0.00
2022-07-29T00:13:51.024Z,0.00
2022-07-29T00:14:48.024Z,0.00
2022-07-29T00:15:48.072Z,0.00
2022-07-29T00:16:48.296Z,0.00
2022-07-29T00:17:48.225Z,0.00
2022-07-29T00:18:48.309Z,0.00
2022-07-29T00:19:48.377Z,0.00
2022-07-29T00:20:48.428Z,0.00
2022-07-29T00:21:48.481Z,0.00
2022-07-29T00:22:48.573Z,0.00
2022-07-29T00:23:48.616Z,0.00
2022-07-29T00:24:48.709Z,0.00
2022-07-29T00:25:48.750Z,0.00
2022-07-29T00:26:48.830Z,0.00
2022-07-29T00:27:48.879Z,0.00
2022-07-29T00:28:48.980Z,0.00
2022-07-29T00:29:49.079Z,0.00
2022-07-29T00:30:49.168Z,0.00
2022-07-29T00:31:49.308Z,0.00
2022-07-29T00:32:49.316Z,0.00
2022-07-29T00:33:49.393Z,0.00
2022-07-29T00:34:49.539Z,0.00
2022-07-29T00:35:49.572Z,0.00
2022-07-29T00:36:49.681Z,0.00
2022-07-29T00:37:49.755Z,0.00
2022-07-29T00:38:49.857Z,0.00
2022-07-29T00:39:49.952Z,0.00
2022-07-29T00:40:50.026Z,0.00
2022-07-29T00:41:50.097Z,0.00
2022-07-29T00:42:50.174Z,0.00
2022-07-29T00:43:50.252Z,0.00
2022-07-29T00:44:50.345Z,0.00
2022-07-29T00:45:50.485Z,0.00
2022-07-29T00:46:50.557Z,0.00
2022-07-29T00:47:50.559Z,0.00
2022-07-29T00:48:50.717Z,0.00
2022-07-29T00:49:50.733Z,0.00
2022-07-29T00:50:50.805Z,0.00
2022-07-29T00:51:50.880Z,0.00
2022-07-29T00:52:50.981Z,0.00
2022-07-29T00:53:51.055Z,0.00
2022-07-29T00:54:51.172Z,0.00
2022-07-29T00:55:51.208Z,0.00
2022-07-29T00:56:51.308Z,0.00
2022-07-29T00:57:51.387Z,0.00
2022-07-29T00:58:51.485Z,0.00
2022-07-29T00:59:51.576Z,0.00
2022-07-29T01:00:51.764Z,0.00
2022-07-29T01:01:51.960Z,0.00
2022-07-29T01:02:51.789Z,0.00
2022-07-29T01:03:51.855Z,0.00
2022-07-29T01:04:51.944Z,0.00
2022-07-29T01:05:52.162Z,0.00
2022-07-29T01:06:52.121Z,0.00
2022-07-29T01:07:52.205Z,0.00
2022-07-29T01:08:52.305Z,0.00
2022-07-29T01:09:52.395Z,0.00
2022-07-29T01:10:52.465Z,0.00
2022-07-29T01:11:52.527Z,0.00
2022-07-29T01:12:52.625Z,0.00
2022-07-29T01:13:52.697Z,0.00
2022-07-29T01:14:52.820Z,0.00
2022-07-29T01:15:52.903Z,0.00
2022-07-29T01:16:52.964Z,0.00
2022-07-29T01:17:53.824Z,0.00
2022-07-29T01:18:53.120Z,0.00
2022-07-29T01:19:53.208Z,0.00
2022-07-29T01:20:53.290Z,0.00
2022-07-29T01:21:53.356Z,0.00
2022-07-29T01:22:53.460Z,0.00
2022-07-29T01:23:53.538Z,0.00
2022-07-29T01:24:53.659Z,0.00
2022-07-29T01:25:55.805Z,0.00
2022-07-29T01:26:53.795Z,0.00
2022-07-29T01:27:53.863Z,0.00
2022-07-29T01:28:53.954Z,0.00
2022-07-29T01:29:54.023Z,0.00
2022-07-29T01:30:54.110Z,0.00
2022-07-29T01:32:00.711Z,0.00
2022-07-29T01:32:54.306Z,0.00
2022-07-29T01:33:54.362Z,0.00
2022-07-29T01:34:54.478Z,0.00
2022-07-29T01:35:54.513Z,0.00
2022-07-29T01:36:54.617Z,0.00
2022-07-29T01:37:54.698Z,0.00
2022-07-29T01:38:54.766Z,0.00
2022-07-29T01:39:54.848Z,0.00
2022-07-29T01:40:54.915Z,0.00
2022-07-29T01:41:54.988Z,0.00
2022-07-29T01:42:55.092Z,0.00
2022-07-29T01:43:55.148Z,0.00
2022-07-29T01:44:55.272Z,0.00
2022-07-29T01:45:55.324Z,0.00
2022-07-29T01:46:55.490Z,0.00
2022-07-29T01:47:55.513Z,0.00
2022-07-29T01:48:55.623Z,0.00
2022-07-29T01:49:55.672Z,0.00
2022-07-29T01:50:55.746Z,0.00
2022-07-29T01:51:55.848Z,0.00
2022-07-29T01:52:55.921Z,0.00
2022-07-29T01:53:56.011Z,0.00
2022-07-29T01:54:56.107Z,0.00
2022-07-29T01:55:56.177Z,0.00
2022-07-29T01:56:56.244Z,0.00
2022-07-29T01:57:56.348Z,0.00
2022-07-29T01:58:56.406Z,0.00
2022-07-29T01:59:56.524Z,0.00
2022-07-29T02:00:56.565Z,0.00
2022-07-29T02:01:56.710Z,0.00
2022-07-29T02:02:56.722Z,0.00
2022-07-29T02:03:56.828Z,0.00
2022-07-29T02:04:56.946Z,0.00
2022-07-29T02:05:56.998Z,0.00
2022-07-29T02:06:57.066Z,0.00
2022-07-29T02:07:57.163Z,0.00
2022-07-29T02:08:57.239Z,0.00
2022-07-29T02:09:57.342Z,0.00
2022-07-29T02:10:57.400Z,0.00
2022-07-29T02:11:57.506Z,0.00
2022-07-29T02:12:57.584Z,0.00
2022-07-29T02:13:57.692Z,0.00
2022-07-29T02:14:59.733Z,0.00
2022-07-29T02:15:57.912Z,0.00
2022-07-29T02:16:57.941Z,0.00
2022-07-29T02:17:58.051Z,0.00
2022-07-29T02:18:58.132Z,0.00
2022-07-29T02:19:58.202Z,0.00
2022-07-29T02:20:58.303Z,0.00
2022-07-29T02:21:58.371Z,0.00
2022-07-29T02:22:58.453Z,0.00
2022-07-29T02:23:58.556Z,0.00
2022-07-29T02:24:58.618Z,0.00
2022-07-29T02:25:58.876Z,0.00
2022-07-29T02:26:58.788Z,0.00
2022-07-29T02:27:58.893Z,0.00
2022-07-29T02:28:58.972Z,0.00
2022-07-29T02:29:59.078Z,0.00
2022-07-29T02:30:59.284Z,0.00
2022-07-29T02:31:59.254Z,0.00
2022-07-29T02:32:59.327Z,0.00
2022-07-29T02:33:59.440Z,0.00
2022-07-29T02:34:59.517Z,0.00
2022-07-29T02:35:59.706Z,0.00
2022-07-29T02:36:59.701Z,0.00
2022-07-29T02:37:59.805Z,0.00
2022-07-29T02:38:59.882Z,0.00
2022-07-29T02:39:59.988Z,0.00
2022-07-29T02:41:00.092Z,0.00
2022-07-29T02:42:00.138Z,0.00
2022-07-29T02:43:00.214Z,0.00
2022-07-29T02:44:00.316Z,0.00
2022-07-29T02:45:00.397Z,0.00
2022-07-29T02:46:00.599Z,0.00
2022-07-29T02:47:00.619Z,0.00
2022-07-29T02:48:00.652Z,0.00
2022-07-29T02:49:00.806Z,0.00
2022-07-29T02:50:00.889Z,0.00
2022-07-29T02:51:00.909Z,0.00
2022-07-29T02:52:00.979Z,0.00
2022-07-29T02:53:01.055Z,0.00
2022-07-29T02:54:01.162Z,0.00
2022-07-29T02:55:01.237Z,0.00
2022-07-29T02:56:03.259Z,0.00
2022-07-29T02:57:01.414Z,0.00
2022-07-29T02:58:01.516Z,0.00
2022-07-29T02:59:01.586Z,0.00
2022-07-29T03:00:01.689Z,0.00
2022-07-29T03:01:01.763Z,0.00
2022-07-29T03:02:01.993Z,0.00
2022-07-29T03:03:01.940Z,0.00
2022-07-29T03:04:02.043Z,0.00
2022-07-29T03:05:02.136Z,0.00
2022-07-29T03:06:02.217Z,0.00
2022-07-29T03:07:02.316Z,0.00
2022-07-29T03:08:02.383Z,0.00
2022-07-29T03:09:02.459Z,0.00
2022-07-29T03:10:02.567Z,0.00
2022-07-29T03:11:02.642Z,0.00
2022-07-29T03:12:02.765Z,0.00
2022-07-29T03:13:02.816Z,0.00
2022-07-29T03:14:02.923Z,0.00
2022-07-29T03:15:03.012Z,0.00
2022-07-29T03:16:03.147Z,0.00
2022-07-29T03:17:03.272Z,0.00
2022-07-29T03:18:03.265Z,0.00
2022-07-29T03:19:03.343Z,0.00
2022-07-29T03:20:03.443Z,0.00
2022-07-29T03:21:03.517Z,0.00
2022-07-29T03:22:03.608Z,0.00
2022-07-29T03:23:03.650Z,0.00
2022-07-29T03:24:08.263Z,0.00
2022-07-29T03:25:03.843Z,0.00
2022-07-29T03:26:03.911Z,0.00
2022-07-29T03:27:03.980Z,0.00
2022-07-29T03:28:04.056Z,0.00
2022-07-29T03:29:04.148Z,0.00
2022-07-29T03:30:04.223Z,0.00
2022-07-29T03:31:04.328Z,0.00
2022-07-29T03:32:07.435Z,0.00
2022-07-29T03:33:04.449Z,0.00
2022-07-29T03:34:04.533Z,0.00
2022-07-29T03:35:04.607Z,0.00
2022-07-29T03:36:04.724Z,0.00
2022-07-29T03:37:04.804Z,0.00
2022-07-29T03:38:04.870Z,0.00
2022-07-29T03:39:04.942Z,0.00
2022-07-29T03:40:05.050Z,0.00
2022-07-29T03:41:05.125Z,0.00
2022-07-29T03:42:05.249Z,0.00
2022-07-29T03:43:05.284Z,0.00
2022-07-29T03:44:05.396Z,0.00
2022-07-29T03:45:05.470Z,0.00
2022-07-29T03:46:05.576Z,0.00
2022-07-29T03:47:05.659Z,5.62
2022-07-29T03:48:05.701Z,5.62
2022-07-29T03:49:05.820Z,5.62
2022-07-29T03:50:05.876Z,5.62
2022-07-29T03:51:05.943Z,5.62
2022-07-29T03:52:06.157Z,5.62
2022-07-29T03:53:06.098Z,5.62
2022-07-29T03:54:09.954Z,5.62
2022-07-29T03:55:06.261Z,5.62
2022-07-29T03:56:06.358Z,11.25
2022-07-29T03:57:06.451Z,11.25
2022-07-29T03:58:06.522Z,11.25
2022-07-29T03:59:06.603Z,11.25
2022-07-29T04:00:06.670Z,11.25
2022-07-29T04:01:06.745Z,11.25
2022-07-29T04:02:06.930Z,11.25
2022-07-29T04:03:10.645Z,16.88
2022-07-29T04:04:07.014Z,16.88
2022-07-29T04:05:07.099Z,16.88
2022-07-29T04:06:07.187Z,22.50
2022-07-29T04:07:07.281Z,22.50
2022-07-29T04:08:07.358Z,28.12
2022-07-29T04:09:07.437Z,28.12
2022-07-29T04:10:07.524Z,33.75
2022-07-29T04:11:07.600Z,33.75
2022-07-29T04:12:07.722Z,39.38
2022-07-29T04:13:07.781Z,39.38
2022-07-29T04:14:07.887Z,39.38
2022-07-29T04:15:07.973Z,39.38
2022-07-29T04:16:08.153Z,45.00
2022-07-29T04:17:08.175Z,45.00
2022-07-29T04:18:08.246Z,45.00
2022-07-29T04:19:08.295Z,50.62
2022-07-29T04:20:08.402Z,56.25
2022-07-29T04:21:08.477Z,56.25
2022-07-29T04:22:08.597Z,61.88
2022-07-29T04:23:08.675Z,67.50
2022-07-29T04:24:08.761Z,67.50
2022-07-29T04:25:08.833Z,73.12
2022-07-29T04:26:08.930Z,78.75
2022-07-29T04:27:09.138Z,78.75
2022-07-29T04:28:09.081Z,78.75
2022-07-29T04:29:09.152Z,84.38
2022-07-29T04:30:09.262Z,84.38
2022-07-29T04:31:09.367Z,90.00
2022-07-29T04:32:09.434Z,95.62
2022-07-29T04:33:09.508Z,95.62
2022-07-29T04:34:09.612Z,101.25
2022-07-29T04:35:09.684Z,106.88
2022-07-29T04:36:28.729Z,106.88
2022-07-29T04:37:09.886Z,112.50
2022-07-29T04:38:15.681Z,112.50
2022-07-29T04:39:10.021Z,112.50
2022-07-29T04:40:10.089Z,118.12
2022-07-29T04:41:10.164Z,118.12
2022-07-29T04:42:10.278Z,123.75
2022-07-29T04:43:10.347Z,123.75
2022-07-29T04:44:10.414Z,129.38
2022-07-29T04:45:10.479Z,135.00
2022-07-29T04:46:10.621Z,140.62
2022-07-29T04:47:10.637Z,151.88
2022-07-29T04:48:10.701Z,157.50
2022-07-29T04:49:10.848Z,163.12
2022-07-29T04:50:10.868Z,174.38
2022-07-29T04:51:10.938Z,180.00
2022-07-29T04:52:11.062Z,180.00
2022-07-29T04:53:11.101Z,191.25
2022-07-29T04:54:11.205Z,196.88
2022-07-29T04:55:11.263Z,202.50
2022-07-29T04:56:11.367Z,202.50
2022-07-29T04:57:11.471Z,208.12
2022-07-29T04:58:11.537Z,213.75
2022-07-29T04:59:11.618Z,213.75
2022-07-29T05:00:11.713Z,213.75
2022-07-29T05:01:11.903Z,213.75
2022-07-29T05:02:11.981Z,213.75
2022-07-29T05:03:11.983Z,219.38
2022-07-29T05:04:12.032Z,225.00
2022-07-29T05:05:12.080Z,230.62
2022-07-29T05:06:12.174Z,230.62
2022-07-29T05:07:12.274Z,230.62
2022-07-29T05:08:12.354Z,230.62
2022-07-29T05:09:12.453Z,225.00
2022-07-29T05:10:12.521Z,219.38
2022-07-29T05:11:14.936Z,219.38
2022-07-29T05:12:12.712Z,213.75
2022-07-29T05:13:12.756Z,208.12
2022-07-29T05:14:13.103Z,202.50
2022-07-29T05:15:12.905Z,196.88
2022-07-29T05:16:13.059Z,185.62
2022-07-29T05:17:13.087Z,180.00
2022-07-29T05:18:13.138Z,174.38
2022-07-29T05:19:14.649Z,168.75
2022-07-29T05:20:13.317Z,163.12
2022-07-29T05:21:13.387Z,157.50
2022-07-29T05:22:13.484Z,157.50
2022-07-29T05:23:13.535Z,151.88
2022-07-29T05:24:14.004Z,151.88
2022-07-29T05:25:13.695Z,151.88
2022-07-29T05:26:13.782Z,146.25
2022-07-29T05:27:13.973Z,140.62
2022-07-29T05:28:13.953Z,140.62
2022-07-29T05:29:44.008Z,140.62
2022-07-29T05:30:14.097Z,140.62
2022-07-29T05:31:14.229Z,140.62
2022-07-29T05:32:14.300Z,146.25
2022-07-29T05:33:35.044Z,151.88
2022-07-29T05:34:14.694Z,157.50
2022-07-29T05:35:14.498Z,163.12
2022-07-29T05:36:14.574Z,168.75
2022-07-29T05:37:14.671Z,174.38
2022-07-29T05:38:14.744Z,185.62
2022-07-29T05:39:14.831Z,196.88
2022-07-29T05:40:14.910Z,208.12
2022-07-29T05:41:14.998Z,225.00
2022-07-29T05:42:15.112Z,241.88
2022-07-29T05:43:15.160Z,264.38
2022-07-29T05:44:15.487Z,281.25
2022-07-29T05:45:15.300Z,303.75
2022-07-29T05:46:15.435Z,337.50
2022-07-29T05:47:15.464Z,365.62
2022-07-29T05:48:15.537Z,393.75
2022-07-29T05:49:26.765Z,416.25
2022-07-29T05:50:15.736Z,444.38
2022-07-29T05:51:15.819Z,472.50
2022-07-29T05:52:15.942Z,500.62
2022-07-29T05:53:19.162Z,528.75
2022-07-29T05:54:16.384Z,540.00
2022-07-29T05:55:16.126Z,556.88
2022-07-29T05:56:16.235Z,568.12
2022-07-29T05:57:16.329Z,590.62
2022-07-29T05:58:16.426Z,928.12
2022-07-29T05:59:18.325Z,556.88
2022-07-29T06:00:16.611Z,545.62
2022-07-29T06:01:16.722Z,534.38
2022-07-29T06:02:16.799Z,528.75
2022-07-29T06:03:16.840Z,534.38
2022-07-29T06:04:17.476Z,551.25
2022-07-29T06:05:17.323Z,585.00
2022-07-29T06:06:17.063Z,585.00
2022-07-29T06:07:17.207Z,590.62
2022-07-29T06:08:17.216Z,556.88
2022-07-29T06:09:17.288Z,585.00
2022-07-29T06:10:17.359Z,562.50
2022-07-29T06:11:17.471Z,770.62
2022-07-29T06:12:17.580Z,1648.12
2022-07-29T06:13:17.642Z,1980.00
2022-07-29T06:14:18.092Z,1631.25
2022-07-29T06:15:17.836Z,1608.75
2022-07-29T06:16:30.223Z,601.88
2022-07-29T06:17:18.069Z,523.12
2022-07-29T06:18:18.077Z,1603.12
2022-07-29T06:19:18.151Z,1350.00
2022-07-29T06:20:18.234Z,855.00
2022-07-29T06:21:18.313Z,804.38
2022-07-29T06:22:18.377Z,714.38
2022-07-29T06:23:18.468Z,483.75
2022-07-29T06:24:19.023Z,315.00
2022-07-29T06:25:18.608Z,298.12
2022-07-29T06:26:18.663Z,286.88
2022-07-29T06:27:18.781Z,281.25
2022-07-29T06:28:18.824Z,275.62
2022-07-29T06:29:18.908Z,270.00
2022-07-29T06:30:18.975Z,270.00
2022-07-29T06:31:19.136Z,270.00
2022-07-29T06:32:19.178Z,275.62
2022-07-29T06:33:19.187Z,286.88
2022-07-29T06:34:19.649Z,298.12
2022-07-29T06:35:39.278Z,315.00
2022-07-29T06:36:19.428Z,337.50
2022-07-29T06:37:19.531Z,360.00
2022-07-29T06:38:31.307Z,376.88
2022-07-29T06:39:19.681Z,382.50
2022-07-29T06:40:19.726Z,388.12
2022-07-29T06:41:19.805Z,388.12
2022-07-29T06:42:19.906Z,382.50
2022-07-29T06:43:19.985Z,365.62
2022-07-29T06:44:20.396Z,388.12
2022-07-29T06:45:20.158Z,1479.38
2022-07-29T06:46:20.371Z,1170.00
2022-07-29T06:47:20.345Z,405.00
2022-07-29T06:48:20.390Z,365.62
2022-07-29T06:49:20.513Z,331.88
2022-07-29T06:50:20.520Z,315.00
2022-07-29T06:51:22.565Z,303.75
2022-07-29T06:52:20.716Z,303.75
2022-07-29T06:53:20.779Z,298.12
2022-07-29T06:54:20.868Z,298.12
2022-07-29T06:55:25.133Z,303.75
2022-07-29T06:56:21.004Z,303.75
2022-07-29T06:57:21.119Z,303.75
2022-07-29T06:58:21.167Z,315.00
2022-07-29T06:59:28.337Z,331.88
2022-07-29T07:00:21.367Z,348.75
2022-07-29T07:01:21.459Z,360.00
2022-07-29T07:02:21.620Z,376.88
2022-07-29T07:03:21.593Z,388.12
2022-07-29T07:04:21.797Z,405.00
2022-07-29T07:05:21.734Z,421.88
2022-07-29T07:06:21.815Z,421.88
2022-07-29T07:07:21.914Z,410.62
2022-07-29T07:08:21.960Z,405.00
2022-07-29T07:09:22.037Z,405.00
2022-07-29T07:10:22.119Z,410.62
2022-07-29T07:11:22.194Z,416.25
2022-07-29T07:12:22.279Z,421.88
2022-07-29T07:13:22.353Z,427.50
2022-07-29T07:14:22.515Z,444.38
2022-07-29T07:15:22.525Z,450.00
2022-07-29T07:16:22.615Z,461.25
2022-07-29T07:17:22.867Z,495.00
2022-07-29T07:18:22.745Z,517.50
2022-07-29T07:19:22.819Z,461.25
2022-07-29T07:20:22.900Z,461.25
2022-07-29T07:21:22.996Z,466.88
2022-07-29T07:22:23.093Z,478.12
2022-07-29T07:23:23.171Z,506.25
2022-07-29T07:24:23.248Z,573.75
2022-07-29T07:25:23.362Z,2565.00
2022-07-29T07:26:23.439Z,838.12
2022-07-29T07:27:23.626Z,1040.62
2022-07-29T07:28:24.656Z,675.00
2022-07-29T07:29:23.696Z,658.12
2022-07-29T07:30:23.899Z,641.25
2022-07-29T07:31:23.920Z,641.25
2022-07-29T07:32:24.048Z,641.25
2022-07-29T07:33:24.071Z,658.12
2022-07-29T07:34:29.495Z,669.38
2022-07-29T07:35:24.267Z,663.75
2022-07-29T07:36:24.327Z,652.50
2022-07-29T07:37:24.455Z,641.25
2022-07-29T07:38:24.494Z,613.12
2022-07-29T07:39:24.609Z,601.88
2022-07-29T07:40:24.677Z,596.25
2022-07-29T07:41:24.750Z,590.62
2022-07-29T07:42:24.866Z,590.62
2022-07-29T07:43:24.912Z,590.62
2022-07-29T07:44:24.991Z,590.62
2022-07-29T07:45:25.208Z,590.62
2022-07-29T07:46:25.198Z,590.62
2022-07-29T07:47:25.254Z,590.62
2022-07-29T07:48:25.306Z,585.00
2022-07-29T07:49:25.472Z,585.00
2022-07-29T07:50:25.473Z,585.00
2022-07-29T07:51:25.567Z,579.38
2022-07-29T07:52:25.665Z,585.00
2022-07-29T07:53:25.729Z,590.62
2022-07-29T07:54:25.796Z,596.25
2022-07-29T07:55:25.903Z,596.25
2022-07-29T07:56:25.992Z,590.62
2022-07-29T07:57:26.116Z,579.38
2022-07-29T07:58:26.180Z,568.12
2022-07-29T07:59:26.272Z,562.50
2022-07-29T08:00:26.368Z,562.50
2022-07-29T08:01:26.464Z,556.88
2022-07-29T08:02:26.533Z,551.25
2022-07-29T08:03:26.588Z,545.62
2022-07-29T08:04:28.612Z,540.00
2022-07-29T08:05:26.778Z,534.38
2022-07-29T08:06:26.827Z,534.38
2022-07-29T08:07:26.952Z,534.38
2022-07-29T08:08:26.993Z,534.38
2022-07-29T08:09:29.752Z,534.38
2022-07-29T08:10:27.154Z,540.00
2022-07-29T08:11:27.225Z,534.38
2022-07-29T08:12:27.317Z,528.75
2022-07-29T08:13:27.367Z,528.75
2022-07-29T08:14:27.449Z,534.38
2022-07-29T08:15:27.552Z,540.00
2022-07-29T08:16:27.717Z,545.62
2022-07-29T08:17:27.780Z,562.50
2022-07-29T08:18:27.809Z,585.00
2022-07-29T08:19:27.888Z,630.00
2022-07-29T08:20:27.966Z,680.62
2022-07-29T08:21:28.076Z,759.38
2022-07-29T08:22:28.175Z,883.12
2022-07-29T08:23:32.897Z,1046.25
2022-07-29T08:24:28.309Z,3088.12
2022-07-29T08:25:28.384Z,3003.75
2022-07-29T08:26:28.457Z,2430.00
2022-07-29T08:27:44.443Z,2840.62
2022-07-29T08:28:28.614Z,3903.75
2022-07-29T08:29:28.687Z,2430.00
2022-07-29T08:30:28.773Z,3746.25
2022-07-29T08:31:28.948Z,4117.50
2022-07-29T08:32:52.006Z,3999.38
2022-07-29T08:33:29.040Z,3892.50
2022-07-29T08:34:29.084Z,3521.25
2022-07-29T08:35:33.327Z,3926.25
2022-07-29T08:36:29.220Z,3425.62
2022-07-29T08:37:29.318Z,2818.12
2022-07-29T08:38:29.368Z,3150.00
2022-07-29T08:39:29.440Z,3273.75
2022-07-29T08:40:32.528Z,3436.88
2022-07-29T08:41:29.595Z,3442.50
2022-07-29T08:42:29.683Z,3628.12
2022-07-29T08:43:29.762Z,3459.38
2022-07-29T08:44:31.187Z,3487.50
2022-07-29T08:45:29.997Z,3442.50
2022-07-29T08:46:30.005Z,3448.12
2022-07-29T08:47:30.116Z,3549.38
2022-07-29T08:48:30.158Z,3403.12
2022-07-29T08:49:30.231Z,3718.12
2022-07-29T08:50:30.285Z,3864.38
2022-07-29T08:51:30.358Z,3723.75
2022-07-29T08:52:30.464Z,3600.00
2022-07-29T08:53:30.538Z,3723.75
2022-07-29T08:54:30.626Z,3549.38
2022-07-29T08:55:30.699Z,3515.62
2022-07-29T08:56:30.784Z,3397.50
2022-07-29T08:57:30.898Z,3093.75
2022-07-29T08:58:30.964Z,2857.50
2022-07-29T08:59:31.392Z,2761.88
2022-07-29T09:00:31.151Z,1333.12
2022-07-29T09:01:36.245Z,1299.38
2022-07-29T09:02:31.303Z,1389.38
2022-07-29T09:03:31.430Z,2176.88
2022-07-29T09:04:31.430Z,1906.88
2022-07-29T09:05:31.503Z,1423.12
2022-07-29T09:06:31.587Z,1816.88
2022-07-29T09:07:34.531Z,1530.00
2022-07-29T09:08:31.720Z,3076.88
2022-07-29T09:09:31.815Z,2851.88
2022-07-29T09:10:31.898Z,3223.12
2022-07-29T09:11:31.972Z,3223.12
2022-07-29T09:12:37.613Z,1321.88
2022-07-29T09:13:32.158Z,1181.25
2022-07-29T09:14:32.207Z,1158.75
2022-07-29T09:15:32.281Z,2491.88
2022-07-29T09:16:52.356Z,1406.25
2022-07-29T09:17:32.530Z,1411.88
2022-07-29T09:18:32.515Z,1271.25
2022-07-29T09:19:32.597Z,1406.25
2022-07-29T09:20:32.666Z,3335.62
2022-07-29T09:21:32.757Z,1299.38
2022-07-29T09:22:32.858Z,3116.25
2022-07-29T09:23:32.936Z,2829.38
2022-07-29T09:24:33.024Z,2818.12
2022-07-29T09:25:33.121Z,1456.88
2022-07-29T09:26:33.214Z,1344.38
2022-07-29T09:27:33.300Z,1698.75
2022-07-29T09:28:33.397Z,1389.38
2022-07-29T09:29:36.284Z,1535.62
2022-07-29T09:30:33.536Z,1265.62
2022-07-29T09:31:33.656Z,2508.75
2022-07-29T09:32:33.717Z,2205.00
2022-07-29T09:33:33.791Z,2413.12
2022-07-29T09:34:33.874Z,1186.88
2022-07-29T09:35:33.984Z,1203.75
2022-07-29T09:36:34.066Z,1220.62
2022-07-29T09:37:34.154Z,1468.12
2022-07-29T09:38:34.218Z,1485.00
2022-07-29T09:39:34.321Z,1288.12
2022-07-29T09:40:34.384Z,2362.50
2022-07-29T09:41:34.464Z,2621.25
2022-07-29T09:42:34.565Z,2722.50
2022-07-29T09:43:34.652Z,1828.12
2022-07-29T09:44:34.725Z,2728.12
2022-07-29T09:45:34.801Z,2593.12
2022-07-29T09:46:34.921Z,2874.38
2022-07-29T09:47:34.981Z,2306.25
2022-07-29T09:48:35.023Z,2671.88
2022-07-29T09:49:35.097Z,2857.50
2022-07-29T09:50:35.179Z,2812.50
2022-07-29T09:51:38.295Z,2913.75
2022-07-29T09:52:35.356Z,2475.00
2022-07-29T09:53:35.435Z,2514.38
2022-07-29T09:54:35.517Z,2536.88
2022-07-29T09:55:35.592Z,2716.88
2022-07-29T09:56:35.668Z,2227.50
2022-07-29T09:57:35.753Z,2205.00
2022-07-29T09:58:35.817Z,2463.75
2022-07-29T09:59:35.896Z,1518.75
2022-07-29T10:00:35.999Z,1440.00
2022-07-29T10:01:36.059Z,1327.50
2022-07-29T10:02:36.163Z,1440.00
2022-07-29T10:03:36.352Z,1507.50
2022-07-29T10:04:36.304Z,1507.50
2022-07-29T10:05:37.123Z,1524.38
2022-07-29T10:06:36.439Z,2047.50
2022-07-29T10:07:36.525Z,1541.25
2022-07-29T10:08:36.568Z,1316.25
2022-07-29T10:09:36.643Z,1451.25
2022-07-29T10:10:36.714Z,1305.00
2022-07-29T10:11:49.728Z,1282.50
2022-07-29T10:12:36.875Z,1276.88
2022-07-29T10:13:36.949Z,1260.00
2022-07-29T10:14:37.032Z,1260.00
2022-07-29T10:15:37.102Z,1215.00
2022-07-29T10:16:37.327Z,1192.50
2022-07-29T10:17:37.294Z,1248.75
2022-07-29T10:18:37.359Z,1119.38
2022-07-29T10:19:37.434Z,1102.50
2022-07-29T10:20:37.505Z,1113.75
2022-07-29T10:21:37.554Z,1136.25
2022-07-29T10:22:52.525Z,1141.88
2022-07-29T10:23:46.143Z,1321.88
2022-07-29T10:24:37.797Z,1490.62
2022-07-29T10:25:37.855Z,2272.50
2022-07-29T10:26:37.937Z,1963.12
2022-07-29T10:27:38.030Z,2728.12
2022-07-29T10:28:38.110Z,2626.88
2022-07-29T10:29:38.192Z,1237.50
2022-07-29T10:30:38.264Z,1659.38
2022-07-29T10:31:38.446Z,1434.38
2022-07-29T10:32:38.459Z,1147.50
2022-07-29T10:33:38.592Z,1935.00
2022-07-29T10:34:38.590Z,1170.00
2022-07-29T10:35:38.653Z,2638.12
2022-07-29T10:36:38.731Z,1164.38
2022-07-29T10:37:38.799Z,1299.38
2022-07-29T10:38:38.870Z,1153.12
2022-07-29T10:39:44.548Z,1125.00
2022-07-29T10:40:41.209Z,1473.75
2022-07-29T12:07:11.056Z,2075.62
2022-07-29T12:07:19.946Z,680.62
2022-07-29T12:08:19.684Z,663.75
2022-07-29T12:09:19.779Z,669.38
2022-07-29T12:10:30.662Z,669.38
2022-07-29T12:11:21.415Z,680.62
2022-07-29T12:12:20.019Z,686.25
2022-07-29T12:13:20.086Z,714.38
2022-07-29T12:14:20.160Z,731.25
2022-07-29T12:15:20.432Z,731.25
2022-07-29T12:16:28.151Z,725.62
2022-07-29T12:17:20.491Z,742.50
2022-07-29T12:18:20.516Z,731.25
2022-07-29T12:19:20.588Z,742.50
2022-07-29T12:20:20.649Z,748.12
2022-07-29T12:21:20.719Z,759.38
2022-07-29T12:22:20.797Z,765.00
2022-07-29T12:23:20.869Z,748.12
2022-07-29T12:24:20.947Z,731.25
2022-07-29T12:25:36.471Z,703.12
2022-07-29T12:26:25.590Z,714.38
2022-07-29T12:27:29.488Z,708.75
2022-07-29T12:28:27.412Z,697.50
2022-07-29T12:29:35.012Z,714.38
2022-07-29T12:30:21.418Z,714.38
2022-07-29T12:31:42.251Z,708.75
2022-07-29T12:32:21.635Z,703.12
2022-07-29T12:33:21.649Z,725.62
2022-07-29T12:34:21.709Z,720.00
2022-07-29T12:35:21.782Z,725.62
2022-07-29T12:36:21.867Z,748.12
2022-07-29T12:37:31.857Z,798.75
2022-07-29T12:38:22.187Z,781.88
2022-07-29T12:39:22.107Z,770.62
2022-07-29T12:40:22.162Z,759.38
2022-07-29T12:41:22.238Z,720.00
2022-07-29T12:42:22.321Z,703.12
2022-07-29T12:43:22.425Z,714.38
2022-07-29T12:44:22.471Z,708.75
2022-07-29T12:45:22.565Z,714.38
2022-07-29T12:46:22.703Z,703.12
2022-07-29T12:47:22.755Z,714.38
2022-07-29T12:48:22.854Z,720.00
2022-07-29T12:49:22.949Z,720.00
2022-07-29T12:50:26.251Z,714.38
2022-07-29T12:51:23.096Z,708.75
2022-07-29T12:52:23.175Z,697.50
2022-07-29T12:53:23.309Z,697.50
2022-07-29T12:54:23.369Z,691.88
2022-07-29T12:55:23.463Z,680.62
2022-07-29T12:57:23.646Z,675.00
2022-07-29T12:58:23.706Z,669.38
2022-07-29T12:59:23.767Z,663.75
2022-07-29T13:00:23.924Z,652.50
2022-07-29T13:01:23.997Z,652.50
2022-07-29T13:02:24.058Z,658.12
2022-07-29T13:03:24.093Z,658.12
2022-07-29T13:04:24.117Z,703.12
2022-07-29T13:05:24.192Z,725.62
2022-07-29T13:06:24.273Z,770.62
2022-07-29T13:07:54.608Z,787.50
2022-07-29T13:08:24.426Z,798.75
2022-07-29T13:09:24.499Z,804.38
2022-07-29T13:10:25.015Z,821.25
2022-07-29T13:11:24.685Z,815.62
2022-07-29T13:12:24.751Z,810.00
2022-07-29T13:13:24.875Z,787.50
2022-07-29T13:14:24.918Z,776.25
2022-07-29T13:15:24.992Z,759.38
2022-07-29T13:16:25.119Z,759.38
2022-07-29T13:17:25.147Z,731.25
2022-07-29T13:18:25.245Z,720.00
2022-07-29T13:19:25.320Z,714.38
2022-07-29T13:20:25.389Z,725.62
2022-07-29T13:21:25.499Z,725.62
2022-07-29T13:22:25.581Z,714.38
2022-07-29T13:23:25.667Z,708.75
2022-07-29T13:24:25.707Z,691.88
2022-07-29T13:25:25.783Z,686.25
2022-07-29T13:26:25.863Z,675.00
2022-07-29T13:27:25.932Z,675.00
2022-07-29T13:28:26.028Z,658.12
2022-07-29T13:29:31.119Z,652.50
2022-07-29T13:30:26.209Z,630.00
2022-07-29T13:31:26.269Z,646.88
2022-07-29T13:32:28.663Z,646.88
2022-07-29T13:33:26.436Z,624.38
2022-07-29T13:34:26.471Z,630.00
2022-07-29T13:35:26.570Z,635.62
2022-07-29T13:36:26.652Z,635.62
2022-07-29T13:37:26.725Z,635.62
2022-07-29T13:38:31.299Z,613.12
2022-07-29T13:39:26.896Z,601.88
2022-07-29T13:40:26.975Z,601.88
2022-07-29T13:41:27.086Z,590.62
2022-07-29T13:42:27.173Z,579.38
2022-07-29T13:43:27.252Z,579.38
2022-07-29T13:44:27.292Z,585.00
2022-07-29T13:45:29.001Z,562.50
2022-07-29T13:46:27.543Z,573.75
2022-07-29T13:47:32.562Z,568.12
2022-07-29T13:48:27.647Z,556.88
2022-07-29T13:49:27.721Z,540.00
2022-07-29T13:50:27.786Z,517.50
2022-07-29T13:51:27.879Z,511.88
2022-07-29T13:52:27.961Z,455.62
2022-07-29T13:53:28.083Z,461.25
2022-07-29T13:54:28.097Z,438.75
2022-07-29T13:55:28.183Z,433.12
2022-07-29T13:56:28.244Z,421.88
2022-07-29T13:57:28.324Z,444.38
2022-07-29T13:58:28.426Z,455.62
2022-07-29T13:59:28.502Z,421.88
2022-07-29T14:00:28.574Z,433.12
2022-07-29T14:01:28.797Z,450.00
2022-07-29T14:02:28.733Z,438.75
2022-07-29T14:03:28.835Z,433.12
2022-07-29T14:04:28.927Z,427.50
2022-07-29T14:05:28.992Z,421.88
2022-07-29T14:06:29.071Z,433.12